Hovedside
METAR-TAF:

METAR-TAF

Lufthavner :

Ivalo, Finland

Ivalo lufthavn

breddegrad: 68-37N, lengdegrad: 027-25E, høyde over havet: 147 m

Gjeldene værobservasjon

Denne rapporten ble laget for 1 time og 16 minutter siden, klokken 09:50 UTC
Vind 14 kt fra Nord
Temperatur 1°C
Luftfuktighet 59%
Trykk 1006 hPa
Sikt 10 km eller mer
Spredte skyer i en høyde av 3100 ft

METAR: EFIV 270950Z 36014KT 9999 SCT031 01/M06 Q1006

Tid: 14:06 (11:06 UTC)

Varsel

Denne rapporten ble laget for 2 timer og 30 minutter siden, klokken 08:36 UTC
Varsel gyldig fra 27. klokken 09 UTC til 27. klokken 12 UTC
Vind 12 kt fra Nord
Sikt 10 km eller mer
Brutte skyer i en høyde av 2500 ft

TAF: EFIV 270836Z 2709/2712 36012KT 9999 BKN025

Værobservasjoner og værvarsel for over 4000 flyplasser (METAR- og TAF-rapporter).

Tilgjengelige stasjoner er representert av de røde og gule prikkene på kartet.

Hold musepekeren over prikken for å se navnet på stasjonen.

Klikk så for å se værobservasjoner og -varsler.

For å forandre kartet kan du klikke på den grønne knappen med svart kryss for å zoome inn, på den grønne knappen med strek for å zoome ut, eller på de grønne pilene for å se tilstøtende kart.


METAR-TAF: